Time;durP1;ratioP1;P1;durP2;ratioP2;P2;SDS_P1;SDS_P2;PMS_P1;PMS_P2;Temp;Humidity;BMP_temperature;BMP_pressure;BME280_temperature;BME280_humidity;BME280_pressure;Samples;Min_cycle;Max_cycle;Signal;HPM_P1;HPM_P2
2022/07/26 00:02:01;;;;;;;3.08;2.77;;;;;;;18.45;78.18;99390.67;1780906;78;21066;-74
2022/07/26 00:04:27;;;;;;;3.37;3.10;;;;;;;18.42;78.27;99385.73;1805276;79;21002;-79
2022/07/26 00:06:53;;;;;;;3.58;2.70;;;;;;;18.40;78.42;99381.11;1780947;79;21053;-77
2022/07/26 00:09:20;;;;;;;3.95;2.60;;;;;;;18.35;78.57;99389.88;1761539;79;21037;-77
2022/07/26 00:11:48;;;;;;;2.58;2.37;;;;;;;18.35;78.64;99380.47;1735199;81;21579;-75
2022/07/26 00:14:15;;;;;;;2.65;2.45;;;;;;;18.46;78.49;99386.39;1738113;82;22616;-76
2022/07/26 00:16:41;;;;;;;3.33;2.90;;;;;;;18.46;78.57;99382.88;1735858;81;21762;-77
2022/07/26 00:19:08;;;;;;;3.83;2.70;;;;;;;18.41;78.61;99381.42;1740564;81;21073;-74
2022/07/26 00:21:36;;;;;;;5.20;2.92;;;;;;;18.32;78.71;99380.91;1761774;81;21060;-75
2022/07/26 00:24:04;;;;;;;4.25;2.55;;;;;;;18.26;78.83;99385.33;1769402;81;21045;-75
2022/07/26 00:26:31;;;;;;;5.20;2.85;;;;;;;18.29;78.86;99378.66;1766833;79;21148;-77
2022/07/26 00:28:58;;;;;;;2.60;2.40;;;;;;;18.35;78.72;99372.40;1732396;81;21014;-76
2022/07/26 00:31:24;;;;;;;2.80;2.60;;;;;;;18.32;78.79;99374.72;1750711;81;21095;-76
2022/07/26 00:33:51;;;;;;;2.62;2.42;;;;;;;18.24;79.02;99378.55;1753427;81;21009;-76
2022/07/26 00:36:19;;;;;;;5.20;2.70;;;;;;;18.18;79.06;99376.23;1739765;81;21070;-76
2022/07/26 00:38:47;;;;;;;3.87;2.75;;;;;;;18.13;79.18;99379.30;1747905;81;21511;-74
2022/07/26 00:41:13;;;;;;;3.50;2.60;;;;;;;18.17;79.25;99380.48;1733566;82;21123;-74
2022/07/26 00:43:54;;;;;;;3.00;2.70;;;;;;;18.26;78.97;99375.10;1751815;81;21049;-77
2022/07/26 00:46:20;;;;;;;2.70;2.50;;;;;;;18.24;78.90;99371.29;1754519;79;21097;-75
2022/07/26 00:48:48;;;;;;;2.50;2.30;;;;;;;18.21;79.02;99373.08;1758357;79;21012;-75
2022/07/26 00:51:16;;;;;;;2.70;2.50;;;;;;;18.15;78.98;99369.95;1743256;81;22553;-76
2022/07/26 00:53:44;;;;;;;2.30;2.10;;;;;;;18.10;78.95;99368.49;1717888;82;21033;-76
2022/07/26 00:56:13;;;;;;;3.20;2.17;;;;;;;18.11;79.00;99366.61;1767905;79;21524;-76
2022/07/26 00:58:42;;;;;;;3.00;2.70;;;;;;;18.15;78.77;99359.20;1744689;81;21057;-74
2022/07/26 01:01:08;;;;;;;3.52;2.20;;;;;;;18.14;78.71;99360.77;1767891;79;21020;-73
2022/07/26 01:03:35;;;;;;;2.90;2.58;;;;;;;18.11;78.73;99352.64;1760957;78;21124;-74
2022/07/26 01:06:02;;;;;;;2.70;2.22;;;;;;;18.09;78.50;99360.11;1785294;79;21026;-75
2022/07/26 01:08:29;;;;;;;3.45;2.27;;;;;;;18.05;78.54;99357.59;1785471;78;21041;-74
2022/07/26 01:10:55;;;;;;;2.17;1.92;;;;;;;18.06;78.42;99360.05;1740399;81;21507;-75
2022/07/26 01:13:23;;;;;;;3.00;2.30;;;;;;;18.11;78.25;99353.98;1777416;80;21104;-75
2022/07/26 01:15:50;;;;;;;4.50;2.42;;;;;;;18.00;78.53;99361.47;1786334;80;21199;-75
2022/07/26 01:18:17;;;;;;;3.08;2.52;;;;;;;17.85;78.85;99357.84;1781958;79;21032;-73
2022/07/26 01:20:45;;;;;;;3.62;3.12;;;;;;;17.75;79.06;99362.87;1785181;79;21088;-73
2022/07/26 01:23:11;;;;;;;2.98;2.62;;;;;;;17.66;79.22;99363.17;1743380;81;21524;-73
2022/07/26 01:25:38;;;;;;;3.47;2.77;;;;;;;17.67;79.30;99367.52;1822525;77;21603;-72
2022/07/26 01:28:04;;;;;;;5.60;3.10;;;;;;;17.74;79.27;99369.30;1825192;78;21017;-72
2022/07/26 01:30:32;;;;;;;4.12;3.02;;;;;;;17.67;79.35;99364.83;1824455;78;21037;-75
2022/07/26 01:32:58;;;;;;;4.50;3.50;;;;;;;17.62;79.51;99365.20;1805359;77;21067;-74
2022/07/26 01:35:25;;;;;;;4.72;3.92;;;;;;;17.59;79.50;99357.58;1802617;77;20997;-72
2022/07/26 01:37:52;;;;;;;4.65;3.50;;;;;;;17.53;79.51;99356.59;1818105;78;21096;-73
2022/07/26 01:40:18;;;;;;;3.67;3.35;;;;;;;17.55;79.58;99359.88;1819319;77;21290;-73
2022/07/26 01:42:44;;;;;;;5.20;3.75;;;;;;;17.63;79.32;99364.14;1823273;78;21080;-75
2022/07/26 01:45:11;;;;;;;4.10;3.70;;;;;;;17.60;79.47;99360.05;1789106;78;21006;-74
2022/07/26 01:47:38;;;;;;;4.85;4.45;;;;;;;17.51;79.53;99355.19;1822621;77;20982;-75
2022/07/26 01:50:06;;;;;;;6.28;4.53;;;;;;;17.42;79.75;99354.15;1825168;78;21048;-75
2022/07/26 01:52:34;;;;;;;5.47;3.70;;;;;;;17.41;79.92;99354.36;1804220;77;21061;-74
2022/07/26 01:55:01;;;;;;;6.03;3.77;;;;;;;17.44;79.82;99358.77;1815667;77;21531;-75
2022/07/26 01:57:27;;;;;;;5.42;4.00;;;;;;;17.51;79.67;99353.31;1802368;77;21106;-75
2022/07/26 01:59:54;;;;;;;4.10;3.62;;;;;;;17.46;79.80;99352.66;1824068;78;21037;-74
2022/07/26 02:02:21;;;;;;;4.78;4.37;;;;;;;17.40;79.96;99349.52;1753902;80;21054;-77
2022/07/26 02:04:59;;;;;;;5.55;4.15;;;;;;;17.34;80.10;99351.73;1766242;78;21119;-77
2022/07/26 02:07:39;;;;;;;4.12;3.55;;;;;;;17.28;80.24;99360.67;1806988;77;21326;-76
2022/07/26 02:10:07;;;;;;;5.40;3.92;;;;;;;17.32;80.16;99357.84;1821250;78;21505;-75
2022/07/26 02:12:33;;;;;;;7.60;4.03;;;;;;;17.37;80.10;99355.85;1797175;78;21076;-74
2022/07/26 02:14:59;;;;;;;4.28;3.87;;;;;;;17.37;80.17;99352.64;1828013;78;20993;-74
2022/07/26 02:17:26;;;;;;;5.62;4.85;;;;;;;17.34;80.20;99350.39;1801680;78;21651;-74
2022/07/26 02:19:52;;;;;;;5.62;4.42;;;;;;;17.30;80.24;99350.53;1822890;78;21500;-73
2022/07/26 02:22:19;;;;;;;10.45;4.40;;;;;;;17.25;80.31;99354.42;1769304;78;21524;-73
2022/07/26 02:24:47;;;;;;;5.95;4.40;;;;;;;17.28;80.24;99353.44;1825142;78;21029;-73
2022/07/26 02:27:13;;;;;;;4.87;3.83;;;;;;;17.36;79.97;99344.80;1786163;79;21033;-73
2022/07/26 02:29:39;;;;;;;5.55;4.37;;;;;;;17.34;80.00;99354.94;1827888;78;21541;-74
2022/07/26 02:32:06;;;;;;;8.20;4.30;;;;;;;17.28;80.19;99353.44;1783592;78;20988;-74
2022/07/26 02:34:33;;;;;;;6.10;4.45;;;;;;;17.21;80.21;99355.38;1807935;78;21321;-73
2022/07/26 02:36:59;;;;;;;5.62;4.00;;;;;;;17.15;80.35;99355.42;1815671;78;21006;-74
2022/07/26 02:39:28;;;;;;;5.67;4.03;;;;;;;17.20;80.36;99360.97;1802806;77;21065;-74
2022/07/26 02:41:56;;;;;;;4.78;3.98;;;;;;;17.30;80.12;99357.24;1800586;78;21876;-75
2022/07/26 02:44:23;;;;;;;4.33;3.92;;;;;;;17.29;80.04;99356.44;1786796;80;21119;-74
2022/07/26 02:46:49;;;;;;;5.12;3.77;;;;;;;17.25;80.13;99352.55;1779852;80;21541;-73
2022/07/26 02:49:16;;;;;;;6.92;4.72;;;;;;;17.22;80.19;99349.48;1785773;79;21637;-75
2022/07/26 02:51:42;;;;;;;5.95;4.40;;;;;;;17.21;80.20;99350.02;1799446;79;21524;-74
2022/07/26 02:54:08;;;;;;;4.55;3.37;;;;;;;17.27;80.12;99346.97;1778177;79;22135;-75
2022/07/26 02:56:35;;;;;;;4.78;4.20;;;;;;;17.40;79.85;99352.20;1781891;79;21473;-73
2022/07/26 02:59:01;;;;;;;6.05;4.15;;;;;;;17.42;79.69;99354.15;1787732;79;21504;-74
2022/07/26 03:01:29;;;;;;;5.80;4.80;;;;;;;17.42;79.65;99358.17;1783253;79;21036;-73
2022/07/26 03:03:55;;;;;;;6.17;4.35;;;;;;;17.42;79.55;99355.48;1769533;79;21076;-75
2022/07/26 03:06:22;;;;;;;6.92;4.42;;;;;;;17.41;79.47;99357.86;1761196;79;21132;-72
2022/07/26 03:08:48;;;;;;;5.70;4.45;;;;;;;17.47;79.34;99356.16;1772019;79;21073;-73
2022/07/26 03:11:14;;;;;;;5.30;4.30;;;;;;;17.58;79.14;99354.61;1779709;80;21061;-74
2022/07/26 03:13:41;;;;;;;7.60;4.83;;;;;;;17.56;79.07;99350.80;1781476;80;20974;-75
2022/07/26 03:16:07;;;;;;;6.60;4.60;;;;;;;17.52;79.20;99354.13;1802584;79;20998;-75
2022/07/26 03:18:34;;;;;;;8.50;5.03;;;;;;;17.49;79.41;99347.34;1790074;80;21104;-74
2022/07/26 03:21:01;;;;;;;6.87;4.65;;;;;;;17.49;79.53;99350.03;1792033;80;21037;-74
2022/07/26 03:23:31;;;;;;;8.38;4.92;;;;;;;17.50;79.49;99351.69;1790617;80;21006;-73
2022/07/26 03:25:56;;;;;;;7.00;5.47;;;;;;;17.59;79.51;99353.02;1766050;80;22022;-75
2022/07/26 03:28:22;;;;;;;6.33;5.62;;;;;;;17.62;79.39;99351.77;1762327;80;21564;-74
2022/07/26 03:30:48;;;;;;;6.53;4.20;;;;;;;17.60;79.42;99351.98;1782227;80;21587;-74
2022/07/26 03:33:15;;;;;;;5.00;4.47;;;;;;;17.58;79.33;99358.11;1789162;80;21695;-74
2022/07/26 03:35:41;;;;;;;6.85;4.20;;;;;;;17.52;79.33;99348.27;1789813;80;21009;-74
2022/07/26 03:38:08;;;;;;;7.22;5.30;;;;;;;17.54;79.50;99350.70;1763720;80;21379;-74
2022/07/26 03:40:34;;;;;;;6.90;5.00;;;;;;;17.66;79.33;99350.27;1769149;80;21063;-74
2022/07/26 03:43:01;;;;;;;8.25;5.00;;;;;;;17.68;79.30;99345.50;1759779;80;21092;-74
2022/07/26 03:45:28;;;;;;;8.18;5.60;;;;;;;17.67;79.03;99347.88;1773505;80;20997;-74
2022/07/26 03:47:54;;;;;;;8.60;5.22;;;;;;;17.64;79.26;99345.65;1764681;80;21588;-74
2022/07/26 03:50:21;;;;;;;9.35;5.85;;;;;;;17.63;79.41;99347.49;1774140;80;21453;-75
2022/07/26 03:52:47;;;;;;;6.40;5.15;;;;;;;17.68;79.61;99344.97;1787311;80;21569;-75
2022/07/26 03:57:58;;;;;;;7.72;6.05;;;;;;;17.84;79.16;99349.47;1770519;80;21053;-74
2022/07/26 04:00:25;;;;;;;7.05;5.75;;;;;;;17.83;79.29;99348.62;1766380;80;21053;-74
2022/07/26 04:02:51;;;;;;;7.95;6.05;;;;;;;17.85;79.44;99355.97;1784092;78;21002;-73
2022/07/26 04:05:18;;;;;;;8.10;5.37;;;;;;;17.91;79.29;99364.19;1790584;78;21053;-73
2022/07/26 04:07:44;;;;;;;9.65;5.03;;;;;;;18.00;78.99;99360.97;1770481;80;21108;-75
2022/07/26 04:10:11;;;;;;;8.18;5.87;;;;;;;18.17;78.73;99367.05;1770485;80;21037;-73
2022/07/26 04:12:37;;;;;;;6.78;5.62;;;;;;;18.21;78.74;99362.32;1771528;80;21010;-74
2022/07/26 04:15:05;;;;;;;8.20;5.45;;;;;;;18.24;78.62;99368.60;1760584;80;21040;-76
2022/07/26 04:17:41;;;;;;;9.38;6.22;;;;;;;18.27;78.42;99369.50;1761572;80;21029;-75
2022/07/26 04:20:10;;;;;;;8.40;6.03;;;;;;;18.27;78.34;99368.66;1778093;80;21245;-77
2022/07/26 04:22:37;;;;;;;9.40;5.65;;;;;;;18.29;78.19;99369.25;1765218;80;21021;-75
2022/07/26 04:25:05;;;;;;;5.97;5.17;;;;;;;18.38;78.02;99367.89;1769928;80;21084;-76
2022/07/26 04:27:32;;;;;;;7.08;5.47;;;;;;;18.61;77.83;99369.84;1783135;80;22284;-74
2022/07/26 04:29:58;;;;;;;7.22;5.17;;;;;;;18.73;77.43;99374.44;1785203;80;21065;-75
2022/07/26 04:32:25;;;;;;;10.48;6.60;;;;;;;18.80;76.66;99378.70;1784366;79;21188;-75
2022/07/26 04:34:51;;;;;;;10.23;6.08;;;;;;;18.83;76.54;99378.75;1781788;80;20986;-76
2022/07/26 04:37:17;;;;;;;10.08;5.45;;;;;;;18.89;76.31;99377.00;1792296;80;21081;-79
2022/07/26 04:39:44;;;;;;;7.90;6.62;;;;;;;18.96;76.44;99371.81;1782018;80;21016;-76
2022/07/26 04:42:10;;;;;;;8.78;5.40;;;;;;;19.13;75.99;99369.27;1780643;80;21009;-76
2022/07/26 04:44:37;;;;;;;9.78;6.25;;;;;;;19.34;75.56;99374.59;1794622;80;21150;-77
2022/07/26 04:47:04;;;;;;;7.30;6.05;;;;;;;19.44;74.98;99379.39;1776956;79;21093;-76
2022/07/26 04:49:30;;;;;;;10.82;6.05;;;;;;;19.51;75.01;99388.69;1777906;80;21054;-77
2022/07/26 04:51:58;;;;;;;8.58;5.92;;;;;;;19.59;74.83;99387.82;1776967;80;21062;-78
2022/07/26 04:54:24;;;;;;;8.85;6.15;;;;;;;19.64;74.34;99380.36;1767793;79;21055;-77
2022/07/26 04:56:51;;;;;;;10.30;8.40;;;;;;;19.69;74.42;99389.91;1788143;80;21484;-78
2022/07/26 04:59:17;;;;;;;10.20;6.10;;;;;;;19.72;74.20;99386.79;1810658;79;21128;-75
2022/07/26 05:01:43;;;;;;;8.38;5.37;;;;;;;19.86;74.07;99389.20;1770875;80;21502;-75
2022/07/26 05:04:10;;;;;;;8.03;5.83;;;;;;;20.08;73.40;99392.09;1780578;78;21621;-77
2022/07/26 05:06:36;;;;;;;8.65;5.35;;;;;;;20.20;73.13;99396.41;1803441;78;21009;-77
2022/07/26 05:09:03;;;;;;;7.03;6.15;;;;;;;20.23;72.84;99390.52;1781707;79;21076;-81
2022/07/26 05:11:29;;;;;;;10.03;5.60;;;;;;;20.23;72.80;99398.61;1798918;78;20985;-80
2022/07/26 05:13:56;;;;;;;8.95;6.47;;;;;;;20.27;73.02;99393.55;1796790;79;21044;-78
2022/07/26 05:16:22;;;;;;;9.15;6.28;;;;;;;20.37;72.84;99390.23;1793102;79;21163;-79
2022/07/26 05:18:48;;;;;;;6.33;5.70;;;;;;;20.46;72.53;99386.09;1793058;79;21040;-80
2022/07/26 05:21:16;;;;;;;6.70;5.42;;;;;;;20.52;72.15;99392.41;1801302;79;21107;-82
2022/07/26 05:23:43;;;;;;;7.97;5.17;;;;;;;20.52;72.28;99390.52;1794603;78;21053;-78
2022/07/26 05:26:11;;;;;;;7.20;5.78;;;;;;;20.60;71.96;99391.50;1790238;79;21060;-79
2022/07/26 05:28:38;;;;;;;8.13;5.58;;;;;;;20.74;71.52;99388.50;1789985;78;21509;-79
2022/07/26 05:31:05;;;;;;;5.80;5.30;;;;;;;20.79;71.62;99388.05;1804989;79;21513;-77
2022/07/26 05:33:31;;;;;;;7.25;5.55;;;;;;;20.81;71.15;99390.52;1791115;78;21293;-77
2022/07/26 05:35:57;;;;;;;8.98;5.87;;;;;;;20.83;71.02;99391.09;1785696;79;21482;-75
2022/07/26 05:38:24;;;;;;;9.25;6.20;;;;;;;20.85;70.89;99389.50;1805110;79;21144;-76
2022/07/26 05:40:51;;;;;;;8.60;5.40;;;;;;;20.87;70.92;99390.89;1801760;78;21523;-78
2022/07/26 05:43:18;;;;;;;7.78;6.15;;;;;;;20.89;71.22;99386.60;1814677;78;21643;-77
2022/07/26 05:45:44;;;;;;;8.10;5.92;;;;;;;20.94;71.13;99381.30;1804975;79;21121;-82
2022/07/26 05:48:10;;;;;;;8.83;5.85;;;;;;;21.00;70.86;99383.82;1799549;79;21040;-81
2022/07/26 05:50:37;;;;;;;8.18;6.72;;;;;;;21.06;70.60;99380.67;1801568;78;21009;-79
2022/07/26 05:53:03;;;;;;;6.42;5.60;;;;;;;21.10;70.16;99385.86;1807970;79;21010;-81
2022/07/26 05:55:30;;;;;;;8.08;6.08;;;;;;;21.13;69.81;99377.80;1786935;79;21060;-82
2022/07/26 05:57:56;;;;;;;6.87;5.28;;;;;;;21.12;70.43;99374.28;1787346;79;21770;-80
2022/07/26 06:00:23;;;;;;;6.12;5.42;;;;;;;21.21;70.58;99377.41;1775466;79;21546;-80
2022/07/26 06:02:49;;;;;;;8.50;5.65;;;;;;;21.36;70.09;99384.89;1773639;80;21595;-80
2022/07/26 06:05:16;;;;;;;5.95;5.40;;;;;;;21.43;69.88;99384.20;1819504;78;21672;-81
2022/07/26 06:07:42;;;;;;;8.58;6.10;;;;;;;21.52;69.62;99384.09;1825354;78;21560;-80
2022/07/26 06:10:09;;;;;;;8.50;6.08;;;;;;;21.62;69.37;99382.07;1806006;78;21224;-79
2022/07/26 06:12:35;;;;;;;9.10;6.12;;;;;;;21.69;69.12;99380.02;1781124;78;21005;-84
2022/07/26 06:15:03;;;;;;;7.90;5.42;;;;;;;21.75;68.84;99379.00;1799283;78;20985;-84
2022/07/26 06:17:30;;;;;;;8.40;5.53;;;;;;;21.79;68.66;99380.68;1794804;80;21584;-83
2022/07/26 06:19:58;;;;;;;6.10;5.50;;;;;;;21.82;68.57;99376.65;1820663;78;21080;-85
2022/07/26 06:22:24;;;;;;;5.20;4.70;;;;;;;21.84;68.39;99374.51;1828199;78;21295;-80
2022/07/26 06:24:51;;;;;;;9.63;5.55;;;;;;;21.87;68.17;99371.31;1798707;79;21003;-83
2022/07/26 06:27:17;;;;;;;7.83;6.00;;;;;;;21.91;68.15;99367.03;1809331;79;21554;-83
2022/07/26 06:29:47;;;;;;;5.35;4.65;;;;;;;21.96;67.59;99363.02;1827833;78;21080;-83
2022/07/26 06:32:12;;;;;;;6.60;5.00;;;;;;;21.99;67.55;99365.23;1823964;78;21009;-83
2022/07/26 06:34:38;;;;;;;6.33;5.22;;;;;;;22.02;67.58;99362.03;1796750;80;21549;-82
2022/07/26 06:37:05;;;;;;;7.28;5.22;;;;;;;22.09;67.58;99361.83;1827073;78;21555;-84
2022/07/26 06:39:31;;;;;;;10.55;5.80;;;;;;;22.15;67.34;99362.16;1822292;78;21493;-81
2022/07/26 06:41:57;;;;;;;7.15;5.65;;;;;;;22.17;66.94;99360.02;1803130;78;21006;-79
2022/07/26 06:44:24;;;;;;;6.42;5.15;;;;;;;22.16;67.10;99357.86;1799805;79;21298;-77
2022/07/26 06:46:50;;;;;;;5.40;4.58;;;;;;;22.20;67.16;99350.05;1796265;79;21173;-80
2022/07/26 06:49:16;;;;;;;5.78;4.87;;;;;;;22.25;67.06;99341.19;1772770;79;21112;-81
2022/07/26 06:51:43;;;;;;;7.97;5.17;;;;;;;22.34;66.93;99343.73;1796777;78;21047;-76
2022/07/26 06:54:09;;;;;;;7.12;5.08;;;;;;;22.42;66.58;99348.67;1795560;78;21034;-79
2022/07/26 06:56:36;;;;;;;12.30;5.80;;;;;;;22.48;66.48;99349.00;1798656;78;21527;-79
2022/07/26 06:59:04;;;;;;;6.25;5.50;;;;;;;22.54;66.66;99342.59;1799768;78;21105;-81
2022/07/26 07:01:30;;;;;;;9.25;6.60;;;;;;;22.64;66.61;99343.73;1790580;78;21358;-76
2022/07/26 07:03:57;;;;;;;6.33;5.50;;;;;;;22.76;66.38;99343.05;1791540;78;21076;-76
2022/07/26 07:06:23;;;;;;;7.40;4.95;;;;;;;22.87;65.99;99337.99;1793152;78;21057;-78
2022/07/26 07:08:50;;;;;;;6.87;4.72;;;;;;;22.99;65.59;99340.52;1786048;78;21283;-76
2022/07/26 07:11:16;;;;;;;5.92;5.05;;;;;;;23.09;64.52;99339.26;1786554;78;21141;-75
2022/07/26 07:13:42;;;;;;;4.87;4.42;;;;;;;23.14;64.27;99335.75;1791350;78;21053;-76
2022/07/26 07:16:09;;;;;;;6.95;4.90;;;;;;;23.17;63.93;99337.95;1788883;78;21612;-76
2022/07/26 07:18:35;;;;;;;5.92;4.17;;;;;;;23.18;64.21;99330.63;1790836;78;21592;-75
2022/07/26 07:21:02;;;;;;;5.22;4.20;;;;;;;23.23;63.95;99328.78;1792528;78;21632;-75
2022/07/26 07:23:32;;;;;;;6.78;4.75;;;;;;;23.25;63.87;99329.87;1793038;78;21851;-75
2022/07/26 07:25:58;;;;;;;5.90;4.60;;;;;;;23.28;63.69;99332.88;1796502;78;21560;-84
2022/07/26 07:28:25;;;;;;;5.53;4.22;;;;;;;23.33;63.29;99328.02;1791106;78;21018;-86
2022/07/26 07:30:51;;;;;;;5.97;3.98;;;;;;;23.45;63.07;99333.23;1798042;78;21061;-80
2022/07/26 07:33:18;;;;;;;7.40;4.47;;;;;;;23.57;62.83;99327.08;1789985;78;21084;-80
2022/07/26 07:35:45;;;;;;;5.70;4.92;;;;;;;23.69;62.60;99322.25;1790442;78;21113;-80
2022/07/26 07:38:11;;;;;;;5.70;4.40;;;;;;;23.79;61.95;99321.50;1794511;78;21041;-80
2022/07/26 07:40:38;;;;;;;6.60;4.42;;;;;;;23.86;61.81;99323.98;1789107;79;21048;-81
2022/07/26 07:43:04;;;;;;;5.50;4.30;;;;;;;23.92;61.64;99323.72;1788480;79;21065;-81
2022/07/26 07:45:32;;;;;;;6.87;4.00;;;;;;;23.98;61.67;99322.39;1764912;79;20998;-83
2022/07/26 07:48:00;;;;;;;5.62;3.77;;;;;;;24.03;60.67;99321.03;1797629;78;21205;-79
2022/07/26 07:50:27;;;;;;;5.85;3.98;;;;;;;24.02;60.62;99323.48;1790307;78;21050;-81
2022/07/26 07:52:53;;;;;;;5.53;3.72;;;;;;;24.03;60.80;99325.09;1783196;79;21112;-77
2022/07/26 07:55:21;;;;;;;6.37;4.40;;;;;;;24.02;60.54;99326.20;1785908;78;21053;-77
2022/07/26 07:57:48;;;;;;;5.08;4.58;;;;;;;23.97;60.66;99332.44;1795313;78;21057;-80
2022/07/26 08:00:18;;;;;;;4.67;4.20;;;;;;;23.96;60.69;99332.70;1790705;79;21017;-78
2022/07/26 08:02:45;;;;;;;4.85;4.25;;;;;;;23.98;60.74;99340.02;1793627;78;21096;-77
2022/07/26 08:05:12;;;;;;;4.10;3.70;;;;;;;23.94;60.64;99337.83;1795417;78;21053;-82
2022/07/26 08:07:39;;;;;;;6.87;3.72;;;;;;;23.91;60.66;99347.03;1791776;78;21256;-80
2022/07/26 08:10:06;;;;;;;8.73;4.15;;;;;;;23.84;60.84;99345.13;1793945;78;21098;-80
2022/07/26 08:12:33;;;;;;;7.42;4.22;;;;;;;23.83;60.96;99344.84;1797622;78;21475;-78
2022/07/26 08:15:00;;;;;;;6.22;4.12;;;;;;;23.84;60.97;99337.80;1793109;78;21017;-81
2022/07/26 08:17:26;;;;;;;4.10;3.65;;;;;;;23.89;61.08;99345.97;1796188;78;21116;-78
2022/07/26 08:22:03;;;;;;;4.35;3.90;;;;;;;24.09;60.65;99338.98;1889553;74;22506;-79
2022/07/26 08:24:32;;;;;;;6.90;4.35;;;;;;;24.16;60.12;99340.06;1805316;78;21005;-82
2022/07/26 08:27:00;;;;;;;6.37;4.37;;;;;;;24.24;59.47;99336.83;1804428;78;21091;-82
2022/07/26 08:29:27;;;;;;;4.75;3.90;;;;;;;24.24;59.42;99337.66;1801447;77;21112;-81
2022/07/26 08:31:53;;;;;;;5.08;4.25;;;;;;;24.28;59.67;99333.84;1773156;79;21025;-82
2022/07/26 08:34:21;;;;;;;5.33;4.53;;;;;;;24.36;59.47;99333.86;1806100;78;21038;-81
2022/07/26 08:36:48;;;;;;;7.05;4.33;;;;;;;24.39;59.43;99335.50;1775262;80;21181;-82
2022/07/26 08:39:15;;;;;;;6.37;4.03;;;;;;;24.45;59.52;99337.67;1771480;80;21276;-79
2022/07/26 08:41:41;;;;;;;5.80;4.72;;;;;;;24.48;59.32;99333.88;1809230;78;21567;-80
2022/07/26 08:44:10;;;;;;;4.83;3.90;;;;;;;24.54;59.12;99336.09;1756059;79;21120;-78
2022/07/26 08:46:38;;;;;;;5.17;4.35;;;;;;;24.60;58.84;99332.84;1760896;80;21073;-79
2022/07/26 08:49:07;;;;;;;5.08;3.65;;;;;;;24.66;58.54;99335.83;1777340;80;21622;-76
2022/07/26 08:51:33;;;;;;;5.28;4.33;;;;;;;24.72;58.50;99336.09;1802790;78;21211;-79
2022/07/26 08:54:00;;;;;;;5.78;4.08;;;;;;;24.73;58.28;99336.38;1785784;78;21049;-80
2022/07/26 08:56:28;;;;;;;4.55;3.98;;;;;;;24.75;58.76;99330.13;1818549;78;21021;-77
2022/07/26 08:58:55;;;;;;;4.62;3.47;;;;;;;24.86;58.39;99322.27;1813087;78;21015;-79
2022/07/26 09:01:23;;;;;;;4.35;3.12;;;;;;;25.02;57.74;99320.89;1807790;78;21461;-81
2022/07/26 09:03:50;;;;;;;3.47;2.85;;;;;;;25.23;57.03;99309.47;1765524;78;21173;-79
2022/07/26 09:06:21;;;;;;;5.53;2.75;;;;;;;25.49;54.44;99308.28;1800088;78;21072;-80
2022/07/26 09:08:50;;;;;;;4.83;2.92;;;;;;;25.80;53.97;99310.88;1818432;78;21533;-81
2022/07/26 09:11:27;;;;;;;6.17;3.67;;;;;;;26.17;53.35;99306.09;1812096;77;21552;-75
2022/07/26 09:14:00;;;;;;;6.90;3.27;;;;;;;26.52;52.77;99307.78;1766103;78;21036;-76
2022/07/26 09:16:27;;;;;;;4.28;3.45;;;;;;;26.92;52.19;99311.26;1821708;77;21033;-78
2022/07/26 09:18:54;;;;;;;3.70;2.83;;;;;;;27.28;51.16;99299.23;1810537;78;20997;-78
2022/07/26 09:21:37;;;;;;;5.97;2.80;;;;;;;27.60;50.51;99293.94;1774042;79;21136;-76
2022/07/26 09:24:05;;;;;;;4.33;2.98;;;;;;;27.89;49.13;99294.95;1786202;78;21064;-77
2022/07/26 09:26:31;;;;;;;3.72;3.40;;;;;;;28.13;48.93;99294.91;1773353;78;21084;-74
2022/07/26 09:29:10;;;;;;;3.25;2.95;;;;;;;28.50;48.21;99298.71;1768631;78;21119;-76
2022/07/26 09:31:38;;;;;;;3.42;3.12;;;;;;;28.94;47.35;99288.69;1793265;78;21013;-74
2022/07/26 09:34:05;;;;;;;3.67;3.20;;;;;;;29.51;46.33;99278.86;1807246;78;21019;-80
2022/07/26 09:36:32;;;;;;;6.08;3.02;;;;;;;30.10;45.42;99271.34;1799670;78;21060;-80
2022/07/26 09:39:02;;;;;;;4.30;3.35;;;;;;;30.68;44.20;99280.09;1797458;78;21515;-82
2022/07/26 09:41:35;;;;;;;3.55;3.25;;;;;;;31.13;43.11;99271.78;1768405;78;21090;-82
2022/07/26 09:44:04;;;;;;;3.58;3.20;;;;;;;31.63;42.51;99280.30;1812054;78;21069;-82
2022/07/26 09:46:34;;;;;;;7.80;3.55;;;;;;;32.14;41.88;99272.45;1782518;80;22075;-79
2022/07/26 09:49:17;;;;;;;4.42;3.42;;;;;;;32.61;41.36;99272.61;1818448;77;21128;-77
2022/07/26 09:51:46;;;;;;;4.22;3.22;;;;;;;33.08;40.56;99271.81;1805938;78;21040;-76
2022/07/26 09:54:20;;;;;;;3.90;3.33;;;;;;;33.54;39.50;99270.16;1802266;77;21981;-80
2022/07/26 09:56:51;;;;;;;5.65;3.25;;;;;;;33.92;38.77;99273.43;1776467;80;21010;-78
2022/07/26 09:59:21;;;;;;;3.83;3.35;;;;;;;34.21;38.22;99268.44;1813706;78;21044;-82
2022/07/26 10:01:50;;;;;;;3.30;3.00;;;;;;;34.51;37.74;99269.69;1774812;78;21002;-82
2022/07/26 10:04:16;;;;;;;4.97;3.52;;;;;;;34.76;37.43;99267.03;1804115;77;21141;-80
2022/07/26 10:06:45;;;;;;;3.83;3.47;;;;;;;34.95;37.24;99268.67;1809447;77;21052;-80
2022/07/26 10:09:13;;;;;;;4.83;3.22;;;;;;;35.21;36.83;99271.13;1781937;80;21098;-80
2022/07/26 10:11:50;;;;;;;5.30;3.22;;;;;;;35.43;36.06;99281.50;1799681;78;21015;-81
2022/07/26 10:14:38;;;;;;;2.85;2.60;;;;;;;35.57;35.85;99277.80;1809355;78;21295;-82
2022/07/26 10:17:30;;;;;;;3.12;2.70;;;;;;;35.87;35.35;99282.26;1772945;79;22103;-78
2022/07/26 10:20:08;;;;;;;3.20;2.90;;;;;;;36.21;35.04;99270.66;1783549;78;21561;-77
2022/07/26 10:22:46;;;;;;;2.98;2.67;;;;;;;36.40;34.89;99263.09;1775600;78;21044;-79
2022/07/26 10:25:24;;;;;;;2.83;2.62;;;;;;;36.64;34.79;99269.65;1779454;78;21057;-79
2022/07/26 10:28:00;;;;;;;2.60;2.40;;;;;;;36.78;34.09;99270.66;1771771;78;21049;-76
2022/07/26 10:30:26;;;;;;;2.70;2.45;;;;;;;36.89;34.15;99268.95;1782897;78;21014;-77
2022/07/26 10:33:01;;;;;;;2.92;2.72;;;;;;;37.05;34.08;99275.89;1777205;78;21731;-76
2022/07/26 10:35:37;;;;;;;3.45;2.80;;;;;;;37.37;33.63;99262.03;1778713;78;21079;-80
2022/07/26 10:38:06;;;;;;;4.22;2.85;;;;;;;37.61;33.15;99261.05;1782073;78;21123;-78
2022/07/26 10:40:34;;;;;;;2.98;2.75;;;;;;;37.69;33.03;99257.85;1781573;80;21528;-79
2022/07/26 10:43:15;;;;;;;5.00;3.27;;;;;;;37.75;32.94;99260.55;1773949;80;21216;-78
2022/07/26 10:45:43;;;;;;;3.17;2.87;;;;;;;37.89;32.83;99267.78;1785164;78;21140;-81
2022/07/26 10:48:18;;;;;;;3.22;2.85;;;;;;;37.98;32.67;99262.03;1757314;80;21012;-82
2022/07/26 10:50:48;;;;;;;4.53;2.72;;;;;;;38.03;32.61;99258.95;1768237;79;21034;-82
2022/07/26 10:53:26;;;;;;;2.45;2.25;;;;;;;38.13;32.20;99261.75;1757296;80;21059;-79
2022/07/26 10:55:56;;;;;;;2.50;2.40;;;;;;;38.32;32.00;99258.96;1770063;79;21076;-75
2022/07/26 10:58:24;;;;;;;3.50;2.37;;;;;;;38.60;31.28;99257.16;1778774;78;21240;-78
2022/07/26 11:01:03;;;;;;;2.83;2.62;;;;;;;38.79;30.86;99260.44;1762538;79;21054;-77
2022/07/26 11:03:42;;;;;;;2.60;2.40;;;;;;;38.97;30.89;99260.17;1785222;80;21032;-77
2022/07/26 11:06:12;;;;;;;2.50;2.37;;;;;;;39.25;30.55;99257.09;1777737;80;21009;-79
2022/07/26 11:08:39;;;;;;;2.95;2.75;;;;;;;39.40;30.15;99255.30;1777545;80;21016;-78
2022/07/26 11:11:05;;;;;;;2.52;2.15;;;;;;;39.68;29.91;99255.55;1769028;79;21132;-77
2022/07/26 11:13:36;;;;;;;2.45;2.25;;;;;;;39.85;29.57;99253.59;1787090;78;21566;-75
2022/07/26 11:16:09;;;;;;;3.72;2.37;;;;;;;40.12;28.63;99243.79;1790820;78;21583;-80
2022/07/26 11:18:37;;;;;;;2.20;2.00;;;;;;;40.02;29.02;99261.95;1765580;79;21041;-80
2022/07/26 11:21:13;;;;;;;2.12;2.00;;;;;;;40.06;28.81;99252.27;1784087;79;21053;-81
2022/07/26 11:23:47;;;;;;;4.28;2.10;;;;;;;40.24;28.60;99256.67;1782473;78;22137;-80
2022/07/26 11:26:21;;;;;;;2.33;2.10;;;;;;;40.46;28.61;99250.77;1786254;78;21703;-78
2022/07/26 11:28:58;;;;;;;4.12;2.50;;;;;;;40.73;28.48;99247.24;1808175;77;21030;-80
2022/07/26 11:31:40;;;;;;;2.72;2.50;;;;;;;40.79;28.32;99240.16;1782152;79;21556;-79
2022/07/26 11:34:16;;;;;;;3.20;2.70;;;;;;;40.68;28.49;99247.02;1785175;78;22602;-79
2022/07/26 11:36:44;;;;;;;2.80;2.60;;;;;;;40.58;28.67;99242.12;1815387;77;21851;-81
2022/07/26 11:39:23;;;;;;;4.00;2.33;;;;;;;40.62;28.56;99241.56;1810455;78;21096;-81
2022/07/26 11:41:53;;;;;;;2.55;2.35;;;;;;;40.83;28.51;99238.80;1781617;78;21592;-81
2022/07/26 11:44:21;;;;;;;3.10;2.50;;;;;;;40.83;28.51;99238.80;1818011;77;21548;-79